createdAt,value
2017-02-16T00:00:26.601Z,1019.42
2017-02-16T00:01:26.560Z,1019.38
2017-02-16T00:02:26.598Z,1019.42
2017-02-16T00:03:26.591Z,1019.34
2017-02-16T00:04:26.638Z,1019.38
2017-02-16T00:05:26.606Z,1019.36
2017-02-16T00:06:26.624Z,1019.39
2017-02-16T00:07:26.632Z,1019.36
2017-02-16T00:08:26.693Z,1019.35
2017-02-16T00:09:26.667Z,1019.34
2017-02-16T00:10:26.668Z,1019.36
2017-02-16T00:11:26.692Z,1019.32
2017-02-16T00:12:26.700Z,1019.36
2017-02-16T00:13:26.713Z,1019.36
2017-02-16T00:14:26.724Z,1019.35
2017-02-16T00:15:26.745Z,1019.34
2017-02-16T00:16:26.751Z,1019.34
2017-02-16T00:17:26.768Z,1019.33
2017-02-16T00:18:26.771Z,1019.36
2017-02-16T00:19:26.785Z,1019.34
2017-02-16T00:20:26.810Z,1019.35
2017-02-16T00:21:26.810Z,1019.31
2017-02-16T00:22:26.860Z,1019.3
2017-02-16T00:23:26.836Z,1019.28
2017-02-16T00:24:26.847Z,1019.29
2017-02-16T00:25:26.861Z,1019.25
2017-02-16T00:26:26.871Z,1019.27
2017-02-16T00:27:26.934Z,1019.29
2017-02-16T00:28:26.917Z,1019.27
2017-02-16T00:29:26.913Z,1019.28
2017-02-16T00:30:26.924Z,1019.28
2017-02-16T00:31:26.933Z,1019.28
2017-02-16T00:32:26.947Z,1019.27
2017-02-16T00:33:26.958Z,1019.34
2017-02-16T00:34:27.001Z,1019.31
2017-02-16T00:35:26.993Z,1019.26
2017-02-16T00:36:26.994Z,1019.27
2017-02-16T00:37:27.008Z,1019.3
2017-02-16T00:38:27.015Z,1019.31
2017-02-16T00:39:27.069Z,1019.28
2017-02-16T00:40:27.089Z,1019.31
2017-02-16T00:41:27.058Z,1019.28
2017-02-16T00:42:27.071Z,1019.3
2017-02-16T00:43:27.074Z,1019.27
2017-02-16T00:44:27.096Z,1019.31
2017-02-16T00:45:27.206Z,1019.32
2017-02-16T00:46:27.111Z,1019.27
2017-02-16T00:47:27.132Z,1019.28
2017-02-16T00:48:27.135Z,1019.27
2017-02-16T00:49:27.156Z,1019.28
2017-02-16T00:50:27.156Z,1019.22
2017-02-16T00:51:27.169Z,1019.26
2017-02-16T00:52:27.196Z,1019.22
2017-02-16T00:53:27.197Z,1019.22
2017-02-16T00:54:27.215Z,1019.25
2017-02-16T00:55:27.220Z,1019.25
2017-02-16T00:56:27.230Z,1019.2
2017-02-16T00:57:27.242Z,1019.24
2017-02-16T00:58:27.262Z,1019.18
2017-02-16T00:59:27.273Z,1019.2
2017-02-16T01:00:27.286Z,1019.22
2017-02-16T01:01:27.297Z,1019.22
2017-02-16T01:02:27.309Z,1019.25
2017-02-16T01:03:27.323Z,1019.24
2017-02-16T01:04:27.328Z,1019.22
2017-02-16T01:05:27.347Z,1019.21
2017-02-16T01:06:27.362Z,1019.22
2017-02-16T01:07:27.374Z,1019.16
2017-02-16T01:08:27.386Z,1019.19
2017-02-16T01:09:27.389Z,1019.21
2017-02-16T01:10:27.407Z,1019.18
2017-02-16T01:11:27.412Z,1019.2
2017-02-16T01:12:27.430Z,1019.13
2017-02-16T01:13:27.443Z,1019.12
2017-02-16T01:14:27.448Z,1019.11
2017-02-16T01:15:27.467Z,1019.12
2017-02-16T01:16:27.482Z,1019.11
2017-02-16T01:17:27.490Z,1019.14
2017-02-16T01:18:27.502Z,1019.17
2017-02-16T01:19:27.513Z,1019.16
2017-02-16T01:20:27.528Z,1019.21
2017-02-16T01:21:27.555Z,1019.19
2017-02-16T01:22:27.551Z,1019.24
2017-02-16T01:23:27.563Z,1019.22
2017-02-16T01:24:27.568Z,1019.21
2017-02-16T01:25:27.586Z,1019.22
2017-02-16T01:26:27.602Z,1019.19
2017-02-16T01:27:27.606Z,1019.16
2017-02-16T01:28:27.624Z,1019.17
2017-02-16T01:29:27.637Z,1019.18
2017-02-16T01:30:27.649Z,1019.17
2017-02-16T01:31:27.687Z,1019.17
2017-02-16T01:32:27.671Z,1019.15
2017-02-16T01:33:27.721Z,1019.13
2017-02-16T01:34:27.695Z,1019.18
2017-02-16T01:35:27.703Z,1019.15
2017-02-16T01:36:27.716Z,1019.18
2017-02-16T01:37:27.729Z,1019.15
2017-02-16T01:38:27.739Z,1019.15
2017-02-16T01:39:27.754Z,1019.16
2017-02-16T01:40:27.766Z,1019.17
2017-02-16T01:41:27.776Z,1019.13
2017-02-16T01:42:27.789Z,1019.14
2017-02-16T01:43:27.801Z,1019.18
2017-02-16T01:44:27.814Z,1019.13
2017-02-16T01:45:27.928Z,1019.18
2017-02-16T01:46:27.917Z,1019.2
2017-02-16T01:47:27.925Z,1019.18
2017-02-16T01:48:27.925Z,1019.2
2017-02-16T01:49:27.935Z,1019.18
2017-02-16T01:50:27.884Z,1019.19
2017-02-16T01:51:27.896Z,1019.23
2017-02-16T01:52:27.908Z,1019.18
2017-02-16T01:53:27.920Z,1019.19
2017-02-16T01:54:27.932Z,1019.2
2017-02-16T01:55:27.943Z,1019.18
2017-02-16T01:56:27.955Z,1019.13
2017-02-16T01:57:27.968Z,1019.12
2017-02-16T01:58:27.979Z,1019.13
2017-02-16T01:59:27.988Z,1019.11
2017-02-16T02:00:28.001Z,1019.09
2017-02-16T02:01:28.015Z,1019.07
2017-02-16T02:02:28.028Z,1019.08
2017-02-16T02:03:28.036Z,1019.06
2017-02-16T02:04:28.049Z,1019.03
2017-02-16T02:05:28.065Z,1019
2017-02-16T02:06:28.075Z,1019.04
2017-02-16T02:07:28.090Z,1019.01
2017-02-16T02:08:28.098Z,1018.98
2017-02-16T02:09:28.110Z,1018.95
2017-02-16T02:10:28.121Z,1018.91
2017-02-16T02:11:28.134Z,1018.89
2017-02-16T02:12:28.147Z,1018.86
2017-02-16T02:13:28.158Z,1018.88
2017-02-16T02:14:28.167Z,1018.89
2017-02-16T02:15:28.179Z,1018.9
2017-02-16T02:16:28.190Z,1018.86
2017-02-16T02:17:28.204Z,1018.89
2017-02-16T02:18:28.214Z,1018.85
2017-02-16T02:19:28.225Z,1018.84
2017-02-16T02:20:28.237Z,1018.85
2017-02-16T02:21:28.251Z,1018.87
2017-02-16T02:22:28.266Z,1018.84
2017-02-16T02:23:28.274Z,1018.85
2017-02-16T02:24:28.287Z,1018.85
2017-02-16T02:25:28.298Z,1018.88
2017-02-16T02:26:28.308Z,1018.84
2017-02-16T02:27:28.322Z,1018.88
2017-02-16T02:28:28.334Z,1018.87
2017-02-16T02:29:28.342Z,1018.84
2017-02-16T02:30:28.357Z,1018.83
2017-02-16T02:31:28.369Z,1018.82
2017-02-16T02:32:28.381Z,1018.87
2017-02-16T02:33:28.392Z,1018.8
2017-02-16T02:34:28.403Z,1018.78
2017-02-16T02:35:28.417Z,1018.78
2017-02-16T02:36:28.427Z,1018.73
2017-02-16T02:37:28.438Z,1018.79
2017-02-16T02:38:28.451Z,1018.78
2017-02-16T02:39:28.463Z,1018.81
2017-02-16T02:40:28.474Z,1018.81
2017-02-16T02:41:28.485Z,1018.82
2017-02-16T02:42:28.497Z,1018.79
2017-02-16T02:43:28.507Z,1018.75
2017-02-16T02:44:28.522Z,1018.72
2017-02-16T02:45:28.533Z,1018.67
2017-02-16T02:46:28.546Z,1018.67
2017-02-16T02:47:28.555Z,1018.65
2017-02-16T02:48:28.566Z,1018.66
2017-02-16T02:49:28.580Z,1018.65
2017-02-16T02:50:28.590Z,1018.66
2017-02-16T02:51:28.602Z,1018.66
2017-02-16T02:52:28.614Z,1018.67
2017-02-16T02:53:28.625Z,1018.73
2017-02-16T02:54:28.637Z,1018.68
2017-02-16T02:55:28.646Z,1018.73
2017-02-16T02:56:28.661Z,1018.73
2017-02-16T02:57:28.673Z,1018.74
2017-02-16T02:58:28.797Z,1018.73
2017-02-16T02:59:28.806Z,1018.7
2017-02-16T03:00:28.816Z,1018.7
2017-02-16T03:01:28.825Z,1018.65
2017-02-16T03:02:28.823Z,1018.69
2017-02-16T03:03:28.818Z,1018.68
2017-02-16T03:04:28.840Z,1018.71
2017-02-16T03:05:28.867Z,1018.71
2017-02-16T03:06:28.885Z,1018.7
2017-02-16T03:07:28.882Z,1018.73
2017-02-16T03:08:28.889Z,1018.7
2017-02-16T03:09:28.898Z,1018.68
2017-02-16T03:10:29.109Z,1018.69
2017-02-16T03:11:28.942Z,1018.7
2017-02-16T03:12:28.950Z,1018.71
2017-02-16T03:13:28.959Z,1018.74
2017-02-16T03:14:28.967Z,1018.76
2017-02-16T03:15:28.975Z,1018.73
2017-02-16T03:16:29.002Z,1018.77
2017-02-16T03:17:29.010Z,1018.76
2017-02-16T03:18:29.019Z,1018.77
2017-02-16T03:19:29.028Z,1018.77
2017-02-16T03:20:29.176Z,1018.75
2017-02-16T03:21:29.035Z,1018.78
2017-02-16T03:22:29.041Z,1018.72
2017-02-16T03:23:29.066Z,1018.7
2017-02-16T03:24:29.075Z,1018.67
2017-02-16T03:25:29.110Z,1018.7
2017-02-16T03:26:29.084Z,1018.72
2017-02-16T03:27:29.091Z,1018.68
2017-02-16T03:28:29.099Z,1018.68
2017-02-16T03:29:29.135Z,1018.67
2017-02-16T03:30:29.154Z,1018.68
2017-02-16T03:31:29.133Z,1018.66
2017-02-16T03:32:29.141Z,1018.67
2017-02-16T03:33:29.141Z,1018.69
2017-02-16T03:34:29.145Z,1018.7
2017-02-16T03:35:29.212Z,1018.66
2017-02-16T03:36:29.165Z,1018.6
2017-02-16T03:37:29.171Z,1018.66
2017-02-16T03:38:29.144Z,1018.66
2017-02-16T03:39:29.158Z,1018.67
2017-02-16T03:40:29.168Z,1018.64
2017-02-16T03:41:29.183Z,1018.69
2017-02-16T03:42:29.193Z,1018.69
2017-02-16T03:43:29.206Z,1018.68
2017-02-16T03:44:29.213Z,1018.66
2017-02-16T03:45:29.229Z,1018.7
2017-02-16T03:46:29.237Z,1018.7
2017-02-16T03:47:29.247Z,1018.69
2017-02-16T03:48:29.262Z,1018.76
2017-02-16T03:49:29.273Z,1018.7
2017-02-16T03:50:29.283Z,1018.64
2017-02-16T03:51:29.292Z,1018.66
2017-02-16T03:52:29.306Z,1018.65
2017-02-16T03:53:29.314Z,1018.66
2017-02-16T03:54:29.328Z,1018.63
2017-02-16T03:55:29.341Z,1018.65
2017-02-16T03:56:29.351Z,1018.65
2017-02-16T03:57:29.363Z,1018.64
2017-02-16T03:58:29.374Z,1018.63
2017-02-16T03:59:29.384Z,1018.68
2017-02-16T04:00:29.402Z,1018.74
2017-02-16T04:01:29.407Z,1018.74
2017-02-16T04:02:29.418Z,1018.73
2017-02-16T04:03:29.429Z,1018.7
2017-02-16T04:04:29.443Z,1018.72
2017-02-16T04:05:29.452Z,1018.71
2017-02-16T04:06:29.466Z,1018.79
2017-02-16T04:07:29.474Z,1018.78
2017-02-16T04:08:29.488Z,1018.78
2017-02-16T04:09:29.502Z,1018.75
2017-02-16T04:10:29.512Z,1018.73
2017-02-16T04:11:29.520Z,1018.74
2017-02-16T04:12:29.534Z,1018.76
2017-02-16T04:13:29.546Z,1018.73
2017-02-16T04:14:29.557Z,1018.77
2017-02-16T04:15:29.568Z,1018.74
2017-02-16T04:16:29.581Z,1018.8
2017-02-16T04:17:29.588Z,1018.83
2017-02-16T04:18:29.602Z,1018.79
2017-02-16T04:19:29.611Z,1018.75
2017-02-16T04:20:29.627Z,1018.75
2017-02-16T04:21:29.637Z,1018.71
2017-02-16T04:22:29.646Z,1018.72
2017-02-16T04:23:29.656Z,1018.68
2017-02-16T04:24:29.670Z,1018.72
2017-02-16T04:25:29.679Z,1018.71
2017-02-16T04:26:29.693Z,1018.71
2017-02-16T04:27:29.702Z,1018.72
2017-02-16T04:28:29.714Z,1018.7
2017-02-16T04:29:29.726Z,1018.74
2017-02-16T04:30:29.735Z,1018.72
2017-02-16T04:31:29.749Z,1018.71
2017-02-16T04:32:29.759Z,1018.73
2017-02-16T04:33:29.770Z,1018.69
2017-02-16T04:34:29.788Z,1018.68
2017-02-16T04:35:29.794Z,1018.7
2017-02-16T04:36:29.807Z,1018.63
2017-02-16T04:37:29.817Z,1018.66
2017-02-16T04:38:29.832Z,1018.67
2017-02-16T04:39:29.839Z,1018.61
2017-02-16T04:40:29.852Z,1018.63
2017-02-16T04:41:29.966Z,1018.62
2017-02-16T04:42:29.974Z,1018.6
2017-02-16T04:43:29.973Z,1018.62
2017-02-16T04:44:29.980Z,1018.58
2017-02-16T04:45:30.016Z,1018.58
2017-02-16T04:46:30.002Z,1018.65
2017-02-16T04:47:30.007Z,1018.6
2017-02-16T04:48:30.031Z,1018.57
2017-02-16T04:49:30.042Z,1018.62
2017-02-16T04:50:30.064Z,1018.6
2017-02-16T04:51:30.059Z,1018.6
2017-02-16T04:52:30.066Z,1018.59
2017-02-16T04:53:30.073Z,1018.59
2017-02-16T04:54:30.006Z,1018.59
2017-02-16T04:55:30.021Z,1018.59
2017-02-16T04:56:30.032Z,1018.59
2017-02-16T04:57:30.044Z,1018.61
2017-02-16T04:58:30.053Z,1018.62
2017-02-16T04:59:30.069Z,1018.65
2017-02-16T05:00:30.077Z,1018.68
2017-02-16T05:01:30.091Z,1018.69
2017-02-16T05:02:30.196Z,1018.69
2017-02-16T05:03:30.111Z,1018.67
2017-02-16T05:04:30.123Z,1018.65
2017-02-16T05:05:30.134Z,1018.69
2017-02-16T05:06:30.144Z,1018.71
2017-02-16T05:07:30.156Z,1018.72
2017-02-16T05:08:30.169Z,1018.68
2017-02-16T05:09:30.178Z,1018.66
2017-02-16T05:10:30.424Z,1018.72
2017-02-16T05:11:30.200Z,1018.68
2017-02-16T05:12:30.212Z,1018.71
2017-02-16T05:13:30.226Z,1018.71
2017-02-16T05:14:30.233Z,1018.69
2017-02-16T05:15:30.244Z,1018.71
2017-02-16T05:16:30.255Z,1018.67
2017-02-16T05:17:30.266Z,1018.68
2017-02-16T05:18:30.279Z,1018.72
2017-02-16T05:19:30.292Z,1018.69
2017-02-16T05:20:30.303Z,1018.71
2017-02-16T05:21:30.313Z,1018.71
2017-02-16T05:22:30.324Z,1018.73
2017-02-16T05:23:30.338Z,1018.74
2017-02-16T05:24:30.347Z,1018.67
2017-02-16T05:25:30.588Z,1018.67
2017-02-16T05:26:30.370Z,1018.68
2017-02-16T05:27:30.380Z,1018.63
2017-02-16T05:28:30.390Z,1018.62
2017-02-16T05:29:30.403Z,1018.63
2017-02-16T05:30:30.414Z,1018.64
2017-02-16T05:31:30.425Z,1018.56
2017-02-16T05:32:30.433Z,1018.56
2017-02-16T05:33:30.447Z,1018.58
2017-02-16T05:34:30.459Z,1018.6
2017-02-16T05:35:30.470Z,1018.63
2017-02-16T05:36:30.480Z,1018.64
2017-02-16T05:37:30.495Z,1018.59
2017-02-16T05:38:30.503Z,1018.56
2017-02-16T05:39:30.514Z,1018.52
2017-02-16T05:40:30.525Z,1018.58
2017-02-16T05:41:30.535Z,1018.61
2017-02-16T05:42:30.549Z,1018.65
2017-02-16T05:43:30.559Z,1018.62
2017-02-16T05:44:30.570Z,1018.59
2017-02-16T05:45:30.581Z,1018.58
2017-02-16T05:46:30.589Z,1018.58
2017-02-16T05:47:30.603Z,1018.56
2017-02-16T05:48:30.615Z,1018.59
2017-02-16T05:49:30.625Z,1018.56
2017-02-16T05:50:30.640Z,1018.53
2017-02-16T05:51:30.649Z,1018.55
2017-02-16T05:52:30.660Z,1018.62
2017-02-16T05:53:30.670Z,1018.64
2017-02-16T05:54:30.685Z,1018.62
2017-02-16T05:55:30.690Z,1018.59
2017-02-16T05:56:30.704Z,1018.58
2017-02-16T05:57:30.715Z,1018.58
2017-02-16T05:58:30.723Z,1018.57
2017-02-16T05:59:30.737Z,1018.51
2017-02-16T06:00:30.748Z,1018.54
2017-02-16T06:01:30.758Z,1018.57
2017-02-16T06:02:30.768Z,1018.6
2017-02-16T06:03:30.782Z,1018.61
2017-02-16T06:04:30.792Z,1018.56
2017-02-16T06:05:30.806Z,1018.58
2017-02-16T06:06:30.815Z,1018.59
2017-02-16T06:07:30.826Z,1018.59
2017-02-16T06:08:30.837Z,1018.6
2017-02-16T06:09:30.847Z,1018.63
2017-02-16T06:10:30.859Z,1018.67
2017-02-16T06:11:30.871Z,1018.68
2017-02-16T06:12:30.880Z,1018.65
2017-02-16T06:13:30.894Z,1018.59
2017-02-16T06:14:30.905Z,1018.6
2017-02-16T06:15:30.915Z,1018.61
2017-02-16T06:16:30.928Z,1018.62
2017-02-16T06:17:30.935Z,1018.62
2017-02-16T06:18:30.948Z,1018.63
2017-02-16T06:19:30.968Z,1018.65
2017-02-16T06:20:30.971Z,1018.67
2017-02-16T06:21:30.980Z,1018.66
2017-02-16T06:22:30.992Z,1018.66
2017-02-16T06:23:31.004Z,1018.66
2017-02-16T06:24:31.013Z,1018.65
2017-02-16T06:25:31.076Z,1018.67
2017-02-16T06:26:31.036Z,1018.64
2017-02-16T06:27:31.048Z,1018.66
2017-02-16T06:28:31.060Z,1018.62
2017-02-16T06:29:31.068Z,1018.67
2017-02-16T06:30:31.081Z,1018.73
2017-02-16T06:31:31.092Z,1018.7
2017-02-16T06:32:31.106Z,1018.7
2017-02-16T06:33:31.140Z,1018.68
2017-02-16T06:34:31.125Z,1018.69
2017-02-16T06:35:31.136Z,1018.67
2017-02-16T06:36:31.148Z,1018.66
2017-02-16T06:37:31.248Z,1018.64
2017-02-16T06:38:31.169Z,1018.66
2017-02-16T06:39:31.181Z,1018.64
2017-02-16T06:40:31.191Z,1018.68
2017-02-16T06:41:31.204Z,1018.69
2017-02-16T06:42:31.215Z,1018.74
2017-02-16T06:43:31.226Z,1018.72
2017-02-16T06:44:31.235Z,1018.75
2017-02-16T06:45:31.247Z,1018.74
2017-02-16T06:46:31.258Z,1018.76
2017-02-16T06:47:31.269Z,1018.79
2017-02-16T06:48:31.280Z,1018.74
2017-02-16T06:49:31.290Z,1018.75
2017-02-16T06:50:31.305Z,1018.73
2017-02-16T06:51:31.312Z,1018.72
2017-02-16T06:52:31.324Z,1018.72
2017-02-16T06:53:31.335Z,1018.75
2017-02-16T06:54:31.344Z,1018.77
2017-02-16T06:55:31.356Z,1018.78
2017-02-16T06:56:31.367Z,1018.77
2017-02-16T06:57:31.379Z,1018.75
2017-02-16T06:58:31.390Z,1018.76
2017-02-16T06:59:31.401Z,1018.77
2017-02-16T07:00:31.415Z,1018.81
2017-02-16T07:01:31.430Z,1018.8
2017-02-16T07:02:31.435Z,1018.78
2017-02-16T07:03:31.445Z,1018.81
2017-02-16T07:04:31.456Z,1018.76
2017-02-16T07:05:31.467Z,1018.75
2017-02-16T07:06:31.477Z,1018.74
2017-02-16T07:07:31.490Z,1018.73
2017-02-16T07:08:31.500Z,1018.7
2017-02-16T07:09:31.513Z,1018.72
2017-02-16T07:10:31.522Z,1018.68
2017-02-16T07:11:31.536Z,1018.71
2017-02-16T07:12:31.544Z,1018.71
2017-02-16T07:13:31.557Z,1018.71
2017-02-16T07:14:31.567Z,1018.75
2017-02-16T07:15:31.579Z,1018.72
2017-02-16T07:16:31.586Z,1018.77
2017-02-16T07:17:31.597Z,1018.79
2017-02-16T07:18:31.611Z,1018.73
2017-02-16T07:19:31.622Z,1018.73
2017-02-16T07:20:31.633Z,1018.72
2017-02-16T07:21:31.643Z,1018.74
2017-02-16T07:22:31.652Z,1018.76
2017-02-16T07:23:31.666Z,1018.82
2017-02-16T07:24:31.676Z,1018.76
2017-02-16T07:25:31.686Z,1018.75
2017-02-16T07:26:31.702Z,1018.73
2017-02-16T07:27:31.708Z,1018.72
2017-02-16T07:28:31.719Z,1018.75
2017-02-16T07:29:31.733Z,1018.71
2017-02-16T07:30:31.742Z,1018.71
2017-02-16T07:31:31.755Z,1018.71
2017-02-16T07:32:31.766Z,1018.73
2017-02-16T07:33:31.777Z,1018.75
2017-02-16T07:34:31.788Z,1018.76
2017-02-16T07:35:31.799Z,1018.76
2017-02-16T07:36:31.810Z,1018.76
2017-02-16T07:37:31.820Z,1018.75
2017-02-16T07:38:31.833Z,1018.71
2017-02-16T07:39:31.841Z,1018.75
2017-02-16T07:40:31.903Z,1018.77
2017-02-16T07:41:31.865Z,1018.75
2017-02-16T07:42:31.876Z,1018.77
2017-02-16T07:43:31.888Z,1018.74
2017-02-16T07:44:31.897Z,1018.68
2017-02-16T07:45:31.907Z,1018.7
2017-02-16T07:46:31.921Z,1018.64
2017-02-16T07:47:31.932Z,1018.64
2017-02-16T07:48:31.941Z,1018.64
2017-02-16T07:49:31.955Z,1018.61
2017-02-16T07:50:31.965Z,1018.64
2017-02-16T07:51:31.976Z,1018.65
2017-02-16T07:52:31.988Z,1018.64
2017-02-16T07:53:31.999Z,1018.63
2017-02-16T07:54:32.008Z,1018.66
2017-02-16T07:55:32.020Z,1018.65
2017-02-16T07:56:32.031Z,1018.65
2017-02-16T07:57:32.043Z,1018.62
2017-02-16T07:58:32.056Z,1018.63
2017-02-16T07:59:32.066Z,1018.63
2017-02-16T08:00:32.078Z,1018.62
2017-02-16T08:01:32.086Z,1018.59
2017-02-16T08:02:32.099Z,1018.56
2017-02-16T08:03:32.109Z,1018.53
2017-02-16T08:04:32.124Z,1018.51
2017-02-16T08:05:32.133Z,1018.47
2017-02-16T08:06:32.145Z,1018.47
2017-02-16T08:07:32.153Z,1018.5
2017-02-16T08:08:32.166Z,1018.5
2017-02-16T08:09:32.177Z,1018.49
2017-02-16T08:10:32.186Z,1018.5
2017-02-16T08:11:32.198Z,1018.45
2017-02-16T08:12:32.210Z,1018.46
2017-02-16T08:13:32.223Z,1018.45
2017-02-16T08:14:32.234Z,1018.45
2017-02-16T08:15:32.246Z,1018.47
2017-02-16T08:16:32.258Z,1018.47
2017-02-16T08:17:32.267Z,1018.47
2017-02-16T08:18:32.277Z,1018.5
2017-02-16T08:19:32.292Z,1018.45
2017-02-16T08:20:32.301Z,1018.47
2017-02-16T08:21:32.311Z,1018.49
2017-02-16T08:22:32.324Z,1018.5
2017-02-16T08:23:32.335Z,1018.52
2017-02-16T08:24:32.345Z,1018.49
2017-02-16T08:25:32.359Z,1018.54
2017-02-16T08:26:32.374Z,1018.57
2017-02-16T08:27:32.380Z,1018.47
2017-02-16T08:28:32.391Z,1018.48
2017-02-16T08:29:32.404Z,1018.44
2017-02-16T08:30:32.413Z,1018.46
2017-02-16T08:31:32.426Z,1018.48
2017-02-16T08:32:32.438Z,1018.51
2017-02-16T08:33:32.466Z,1018.49
2017-02-16T08:34:32.459Z,1018.52
2017-02-16T08:35:32.471Z,1018.52
2017-02-16T08:36:32.482Z,1018.49
2017-02-16T08:37:32.502Z,1018.56
2017-02-16T08:38:32.502Z,1018.51
2017-02-16T08:39:32.516Z,1018.57
2017-02-16T08:40:32.529Z,1018.56
2017-02-16T08:41:32.538Z,1018.55
2017-02-16T08:42:32.552Z,1018.48
2017-02-16T08:43:32.562Z,1018.47
2017-02-16T08:44:32.574Z,1018.49
2017-02-16T08:45:32.583Z,1018.47
2017-02-16T08:46:32.597Z,1018.49
2017-02-16T08:47:32.608Z,1018.49
2017-02-16T08:48:32.620Z,1018.52
2017-02-16T08:49:32.629Z,1018.45
2017-02-16T08:50:32.644Z,1018.46
2017-02-16T08:51:32.657Z,1018.5
2017-02-16T08:52:32.666Z,1018.46
2017-02-16T08:53:32.677Z,1018.46
2017-02-16T08:54:32.689Z,1018.47
2017-02-16T08:55:32.699Z,1018.52
2017-02-16T08:56:32.712Z,1018.49
2017-02-16T08:57:32.723Z,1018.48
2017-02-16T08:58:32.736Z,1018.53
2017-02-16T08:59:32.746Z,1018.52
2017-02-16T09:00:32.755Z,1018.53
2017-02-16T09:01:32.770Z,1018.56
2017-02-16T09:02:32.782Z,1018.53
2017-02-16T09:03:32.793Z,1018.58
2017-02-16T09:04:32.805Z,1018.55
2017-02-16T09:05:32.816Z,1018.57
2017-02-16T09:06:32.827Z,1018.55
2017-02-16T09:07:32.840Z,1018.58
2017-02-16T09:08:32.853Z,1018.53
2017-02-16T09:09:32.862Z,1018.54
2017-02-16T09:10:32.875Z,1018.55
2017-02-16T09:11:32.887Z,1018.52
2017-02-16T09:12:32.898Z,1018.5
2017-02-16T09:13:32.912Z,1018.44
2017-02-16T09:14:32.926Z,1018.44
2017-02-16T09:15:32.984Z,1018.44
2017-02-16T09:16:32.947Z,1018.38
2017-02-16T09:17:32.963Z,1018.41
2017-02-16T09:18:32.969Z,1018.4
2017-02-16T09:19:32.981Z,1018.4
2017-02-16T09:20:32.994Z,1018.44
2017-02-16T09:21:33.005Z,1018.45
2017-02-16T09:22:33.023Z,1018.44
2017-02-16T09:23:33.030Z,1018.46
2017-02-16T09:24:33.043Z,1018.43
2017-02-16T09:25:33.056Z,1018.45
2017-02-16T09:26:33.065Z,1018.44
2017-02-16T09:27:33.078Z,1018.48
2017-02-16T09:28:33.091Z,1018.47
2017-02-16T09:29:33.100Z,1018.44
2017-02-16T09:30:33.112Z,1018.41
2017-02-16T09:31:33.127Z,1018.45
2017-02-16T09:32:33.139Z,1018.42
2017-02-16T09:33:33.149Z,1018.47
2017-02-16T09:34:33.163Z,1018.45
2017-02-16T09:35:33.176Z,1018.43
2017-02-16T09:36:33.185Z,1018.42
2017-02-16T09:37:33.201Z,1018.42
2017-02-16T09:38:33.211Z,1018.43
2017-02-16T09:39:33.225Z,1018.49
2017-02-16T09:40:33.236Z,1018.47
2017-02-16T09:41:33.249Z,1018.46
2017-02-16T09:42:33.261Z,1018.47
2017-02-16T09:43:33.277Z,1018.47
2017-02-16T09:44:33.285Z,1018.44
2017-02-16T09:45:33.297Z,1018.45
2017-02-16T09:46:33.307Z,1018.44
2017-02-16T09:47:33.322Z,1018.4
2017-02-16T09:48:33.335Z,1018.4
2017-02-16T09:49:33.346Z,1018.45
2017-02-16T09:50:33.460Z,1018.48
2017-02-16T09:51:33.368Z,1018.43
2017-02-16T09:52:33.383Z,1018.45
2017-02-16T09:53:33.395Z,1018.4
2017-02-16T09:54:33.406Z,1018.36
2017-02-16T09:55:33.417Z,1018.38
2017-02-16T09:56:33.434Z,1018.4
2017-02-16T09:57:33.445Z,1018.33
2017-02-16T09:58:33.459Z,1018.3
2017-02-16T09:59:33.471Z,1018.31
2017-02-16T10:00:33.485Z,1018.31
2017-02-16T10:01:33.497Z,1018.32
2017-02-16T10:02:33.508Z,1018.32
2017-02-16T10:03:33.521Z,1018.31
2017-02-16T10:04:33.533Z,1018.31
2017-02-16T10:05:33.546Z,1018.31
2017-02-16T10:06:33.560Z,1018.3
2017-02-16T10:07:33.571Z,1018.29
2017-02-16T10:08:33.582Z,1018.33
2017-02-16T10:09:33.596Z,1018.27
2017-02-16T10:10:33.609Z,1018.25
2017-02-16T10:11:33.643Z,1018.25
2017-02-16T10:12:33.635Z,1018.27
2017-02-16T10:13:33.646Z,1018.27
2017-02-16T10:14:33.658Z,1018.25
2017-02-16T10:15:33.673Z,1018.22
2017-02-16T10:16:33.685Z,1018.25
2017-02-16T10:17:33.695Z,1018.26
2017-02-16T10:18:33.708Z,1018.22
2017-02-16T10:19:33.722Z,1018.21
2017-02-16T10:20:33.735Z,1018.22
2017-02-16T10:21:33.756Z,1018.17
2017-02-16T10:22:33.765Z,1018.18
2017-02-16T10:23:33.774Z,1018.16
2017-02-16T10:24:33.791Z,1018.09
2017-02-16T10:25:33.802Z,1018.13
2017-02-16T10:26:33.814Z,1018.12
2017-02-16T10:27:33.828Z,1018.1
2017-02-16T10:28:33.840Z,1018.06
2017-02-16T10:29:33.854Z,1018.07
2017-02-16T10:30:33.865Z,1018.08
2017-02-16T10:31:33.881Z,1018.06
2017-02-16T10:32:33.891Z,1018.06
2017-02-16T10:33:33.910Z,1018.04
2017-02-16T10:34:33.918Z,1018.05
2017-02-16T10:35:33.934Z,1018.02
2017-02-16T10:36:33.948Z,1018.03
2017-02-16T10:37:33.959Z,1018.02
2017-02-16T10:38:33.972Z,1017.97
2017-02-16T10:39:34.005Z,1017.94
2017-02-16T10:40:33.998Z,1017.94
2017-02-16T10:41:34.035Z,1017.95
2017-02-16T10:42:34.023Z,1017.94
2017-02-16T10:43:34.066Z,1017.9
2017-02-16T10:44:34.052Z,1017.88
2017-02-16T10:45:34.065Z,1017.91
2017-02-16T10:46:34.079Z,1017.89
2017-02-16T10:47:34.093Z,1017.93
2017-02-16T10:48:34.105Z,1017.87
2017-02-16T10:49:34.119Z,1017.9
2017-02-16T10:50:34.135Z,1017.93
2017-02-16T10:51:34.148Z,1017.9
2017-02-16T10:52:34.164Z,1017.97
2017-02-16T10:53:34.174Z,1017.93
2017-02-16T10:54:34.190Z,1017.86
2017-02-16T10:55:34.202Z,1017.96
2017-02-16T10:56:34.219Z,1017.97
2017-02-16T10:57:34.228Z,1017.85
2017-02-16T10:58:34.245Z,1017.83
2017-02-16T10:59:34.258Z,1017.82
2017-02-16T11:00:34.269Z,1017.79
2017-02-16T11:01:34.305Z,1017.78
2017-02-16T11:02:34.300Z,1017.78
2017-02-16T11:03:34.332Z,1017.74
2017-02-16T11:04:34.327Z,1017.75
2017-02-16T11:05:34.366Z,1017.7
2017-02-16T11:06:34.353Z,1017.73
2017-02-16T11:07:34.367Z,1017.7
2017-02-16T11:08:34.381Z,1017.74
2017-02-16T11:09:34.397Z,1017.7
2017-02-16T11:10:34.415Z,1017.71
2017-02-16T11:11:34.444Z,1017.69
2017-02-16T11:12:34.437Z,1017.68
2017-02-16T11:13:34.472Z,1017.67
2017-02-16T11:14:34.468Z,1017.64
2017-02-16T11:15:34.508Z,1017.59
2017-02-16T11:16:34.497Z,1017.64
2017-02-16T11:17:34.511Z,1017.62
2017-02-16T11:18:34.521Z,1017.61
2017-02-16T11:19:34.535Z,1017.65
2017-02-16T11:20:34.552Z,1017.61
2017-02-16T11:21:34.585Z,1017.62
2017-02-16T11:22:34.578Z,1017.59
2017-02-16T11:23:34.611Z,1017.58
2017-02-16T11:24:34.607Z,1017.53
2017-02-16T11:25:34.646Z,1017.5
2017-02-16T11:26:34.639Z,1017.47
2017-02-16T11:27:34.661Z,1017.47
2017-02-16T11:28:34.668Z,1017.42
2017-02-16T11:29:34.679Z,1017.4
2017-02-16T11:30:34.696Z,1017.38
2017-02-16T11:31:34.721Z,1017.38
2017-02-16T11:32:34.726Z,1017.4
2017-02-16T11:33:34.759Z,1017.33
2017-02-16T11:34:34.755Z,1017.39
2017-02-16T11:35:34.778Z,1017.33
2017-02-16T11:36:34.782Z,1017.31
2017-02-16T11:37:34.816Z,1017.28
2017-02-16T11:38:34.811Z,1017.27
2017-02-16T11:39:34.847Z,1017.28
2017-02-16T11:40:34.844Z,1017.22
2017-02-16T11:41:34.876Z,1017.26
2017-02-16T11:42:34.874Z,1017.23
2017-02-16T11:43:34.909Z,1017.23
2017-02-16T11:44:34.899Z,1017.18
2017-02-16T11:45:34.937Z,1017.17
2017-02-16T11:46:34.933Z,1017.18
2017-02-16T11:47:34.964Z,1017.18
2017-02-16T11:48:34.964Z,1017.09
2017-02-16T11:49:35.007Z,1017.08
2017-02-16T11:50:34.994Z,1017.07
2017-02-16T11:51:35.006Z,1017.03
2017-02-16T11:52:35.026Z,1016.99
2017-02-16T11:53:35.046Z,1016.96
2017-02-16T11:54:35.054Z,1016.95
2017-02-16T11:55:35.184Z,1016.97
2017-02-16T11:56:35.173Z,1016.96
2017-02-16T11:57:35.099Z,1016.94
2017-02-16T11:58:35.114Z,1016.99
2017-02-16T11:59:35.130Z,1016.95
2017-02-16T12:00:35.145Z,1016.93
2017-02-16T12:01:35.160Z,1016.94
2017-02-16T12:02:35.171Z,1016.94
2017-02-16T12:03:35.190Z,1016.93
2017-02-16T12:04:35.204Z,1016.91
2017-02-16T12:05:35.221Z,1016.89
2017-02-16T12:06:35.237Z,1016.9
2017-02-16T12:07:35.252Z,1016.93